Terminal Aerodrome Forecast
Issued by NWS

Home | Current Version | Previous Version | Text Only | Print | Product List | Glossary On
Versions: 1 2 3 4 5 6 7 8 9 10 11 12
000
FTUS45 KREV 041720
TAFMMH
TAF
KMMH 041720Z 0418/0518 12010KT P6SM FEW100 BKN140
     FM042200 21012G18KT P6SM VCSH FEW080 BKN120
     FM050400 26008KT P6SM BKN080 OVC140=

USA.gov is the U.S. government's official web portal to all federal, state and local government web resources and services.